Time;durP1;ratioP1;P1;durP2;ratioP2;P2;SDS_P1;SDS_P2;PMS_P1;PMS_P2;Temp;Humidity;BMP_temperature;BMP_pressure;BME280_temperature;BME280_humidity;BME280_pressure;Samples;Min_cycle;Max_cycle;Signal;HPM_P1;HPM_P2
2021/12/16 00:05:52;;;;;;;14.30;6.30;;;4.00;99.90;;;;;;5013239;28;20497;-85
2021/12/16 00:08:33;;;;;;;15.93;6.43;;;3.90;99.90;;;;;;5013028;28;20149;-85
2021/12/16 00:11:16;;;;;;;13.27;6.40;;;3.90;99.90;;;;;;5010102;28;20456;-86
2021/12/16 00:31:02;;;;;;;13.03;5.30;;;4.00;99.90;;;;;;5012699;28;20926;-85
2021/12/16 00:35:36;;;;;;;12.60;6.07;;;3.90;99.90;;;;;;5011967;28;20026;-85
2021/12/16 00:38:02;;;;;;;11.53;5.50;;;3.90;99.90;;;;;;5010689;28;20444;-85
2021/12/16 00:40:28;;;;;;;14.87;6.20;;;3.90;99.90;;;;;;5011116;28;20036;-86
2021/12/16 00:42:59;;;;;;;15.03;6.13;;;3.90;99.90;;;;;;5011503;28;20033;-86
2021/12/16 00:45:42;;;;;;;13.23;5.50;;;3.90;99.90;;;;;;5011567;28;20092;-86
2021/12/16 00:55:56;;;;;;;10.27;5.47;;;3.90;99.90;;;;;;5012326;28;20110;-86
2021/12/16 00:58:40;;;;;;;11.70;5.67;;;3.90;99.90;;;;;;5011617;28;20109;-86
2021/12/16 01:01:17;;;;;;;12.03;6.17;;;3.90;99.90;;;;;;5002604;28;20106;-86
2021/12/16 01:03:57;;;;;;;14.10;6.00;;;3.90;99.90;;;;;;4992090;28;20030;-86
2021/12/16 01:06:49;;;;;;;13.80;6.77;;;3.90;99.90;;;;;;4991913;28;20512;-87
2021/12/16 01:34:20;;;;;;;15.33;7.27;;;3.90;99.90;;;;;;5011350;28;20037;-86
2021/12/16 01:47:38;;;;;;;14.17;7.97;;;3.80;99.90;;;;;;5014171;28;20094;-87
2021/12/16 01:50:12;;;;;;;16.40;6.93;;;3.80;99.90;;;;;;5014672;28;20022;-86
2021/12/16 01:55:23;;;;;;;17.87;8.10;;;3.80;99.90;;;;;;4996095;28;20030;-86
2021/12/16 01:57:54;;;;;;;18.20;8.33;;;3.80;99.90;;;;;;4994799;28;20034;-86
2021/12/16 02:01:09;;;;;;;15.53;7.43;;;3.80;99.90;;;;;;4994446;28;20031;-86
2021/12/16 02:03:44;;;;;;;15.43;7.40;;;3.80;99.90;;;;;;4995438;28;20037;-86
2021/12/16 02:08:46;;;;;;;16.07;7.23;;;3.80;99.90;;;;;;4996090;28;20057;-86
2021/12/16 02:37:23;;;;;;;18.27;8.00;;;3.70;99.90;;;;;;5005161;28;20421;-86
2021/12/16 02:39:50;;;;;;;17.27;8.53;;;3.70;99.90;;;;;;4997420;28;20044;-86
2021/12/16 02:42:20;;;;;;;18.00;7.57;;;3.70;99.90;;;;;;5012401;28;20022;-86
2021/12/16 02:50:27;;;;;;;17.30;8.13;;;3.70;99.90;;;;;;4994934;28;20433;-86
2021/12/16 02:52:56;;;;;;;18.87;8.20;;;3.70;99.90;;;;;;5004402;28;20026;-85
2021/12/16 02:55:22;;;;;;;17.50;8.53;;;3.70;99.90;;;;;;5010652;28;20022;-86
2021/12/16 02:57:56;;;;;;;17.57;7.43;;;3.70;99.90;;;;;;5012772;28;20032;-85
2021/12/16 03:00:22;;;;;;;16.83;7.60;;;3.60;99.90;;;;;;5012684;28;20058;-85
2021/12/16 03:02:51;;;;;;;17.43;8.10;;;3.60;99.90;;;;;;5000935;28;20072;-85
2021/12/16 03:05:20;;;;;;;19.50;8.17;;;3.60;99.90;;;;;;4993373;28;20026;-85
2021/12/16 03:07:53;;;;;;;20.23;7.23;;;3.70;99.90;;;;;;4993362;28;20371;-85
2021/12/16 03:13:09;;;;;;;17.07;8.03;;;3.70;99.90;;;;;;5013886;28;20088;-85
2021/12/16 03:18:32;;;;;;;15.60;7.03;;;3.70;99.90;;;;;;5007026;28;20026;-85
2021/12/16 03:21:05;;;;;;;20.97;7.80;;;3.70;99.90;;;;;;5018523;28;20512;-85
2021/12/16 03:29:12;;;;;;;20.97;7.47;;;3.70;99.90;;;;;;5013950;28;20080;-85
2021/12/16 03:37:15;;;;;;;18.17;8.03;;;3.70;99.90;;;;;;5008004;28;20131;-86
2021/12/16 03:39:48;;;;;;;20.20;7.93;;;3.80;99.90;;;;;;4996650;28;20049;-86
2021/12/16 03:42:20;;;;;;;17.70;7.23;;;3.70;99.90;;;;;;5012365;28;20109;-86
2021/12/16 03:44:54;;;;;;;11.98;5.35;;;3.80;99.90;;;;;;4996833;28;20132;-85
2021/12/16 03:47:43;;;;;;;15.97;7.10;;;3.80;99.90;;;;;;4977457;28;20030;-86
2021/12/16 03:50:12;;;;;;;18.03;7.93;;;3.70;99.90;;;;;;4993956;28;20029;-86
2021/12/16 03:52:43;;;;;;;20.33;8.10;;;3.70;99.90;;;;;;4977186;28;20062;-85
2021/12/16 03:55:09;;;;;;;19.37;8.47;;;3.70;99.90;;;;;;4994113;28;20034;-85
2021/12/16 03:57:36;;;;;;;16.97;7.47;;;3.70;99.90;;;;;;5013268;28;20057;-85
2021/12/16 04:00:10;;;;;;;18.07;7.67;;;3.70;99.90;;;;;;5013652;28;20026;-85
2021/12/16 04:02:36;;;;;;;18.57;8.43;;;3.70;99.90;;;;;;5005808;28;20036;-87
2021/12/16 04:05:05;;;;;;;19.57;8.50;;;3.70;99.90;;;;;;5014482;28;20025;-86
2021/12/16 04:07:34;;;;;;;14.70;7.47;;;3.70;99.90;;;;;;5013995;28;20057;-85
2021/12/16 04:10:01;;;;;;;19.03;8.40;;;3.60;99.90;;;;;;5003330;28;20037;-86
2021/12/16 04:12:28;;;;;;;17.03;8.17;;;3.60;99.90;;;;;;4993842;28;20052;-86
2021/12/16 04:14:57;;;;;;;17.40;7.87;;;3.60;99.90;;;;;;4992969;28;20030;-85
2021/12/16 04:17:27;;;;;;;18.63;8.53;;;3.60;99.90;;;;;;4997857;28;20026;-86
2021/12/16 04:19:53;;;;;;;20.47;8.07;;;3.60;99.90;;;;;;5013517;28;20030;-86
2021/12/16 04:22:30;;;;;;;20.60;7.77;;;3.70;99.90;;;;;;4995503;28;20033;-85
2021/12/16 04:24:57;;;;;;;20.33;8.20;;;3.70;99.90;;;;;;5013999;28;20014;-85
2021/12/16 04:27:25;;;;;;;16.13;7.60;;;3.70;99.90;;;;;;4992328;28;20440;-86
2021/12/16 04:29:52;;;;;;;18.20;8.33;;;3.70;99.90;;;;;;4992605;28;20109;-86
2021/12/16 04:32:18;;;;;;;17.93;7.77;;;3.70;99.90;;;;;;4993381;28;20647;-85
2021/12/16 04:34:44;;;;;;;19.70;8.73;;;3.70;99.90;;;;;;4993668;28;20022;-86
2021/12/16 04:37:10;;;;;;;19.13;8.40;;;3.70;99.90;;;;;;4995560;28;20117;-85
2021/12/16 04:39:38;;;;;;;19.73;7.07;;;3.70;99.90;;;;;;5012869;28;20113;-85
2021/12/16 04:42:04;;;;;;;19.30;7.13;;;3.70;99.90;;;;;;5012850;28;20088;-86
2021/12/16 04:44:31;;;;;;;21.70;8.30;;;3.70;99.90;;;;;;5013304;28;20085;-85
2021/12/16 04:46:58;;;;;;;16.63;7.10;;;3.70;99.90;;;;;;4995195;28;20121;-86
2021/12/16 04:49:24;;;;;;;18.00;7.37;;;3.70;99.90;;;;;;5013059;28;20088;-86
2021/12/16 04:51:55;;;;;;;18.80;7.73;;;3.70;99.90;;;;;;4995223;28;20033;-86
2021/12/16 04:54:24;;;;;;;18.83;6.93;;;3.60;99.90;;;;;;4995353;28;20433;-86
2021/12/16 04:56:51;;;;;;;15.70;6.90;;;3.60;99.90;;;;;;5012961;28;20026;-85
2021/12/16 04:59:19;;;;;;;16.83;6.97;;;3.60;99.90;;;;;;5012749;28;20445;-85
2021/12/16 05:01:51;;;;;;;15.63;6.67;;;3.60;99.90;;;;;;4994778;28;20057;-86
2021/12/16 05:04:17;;;;;;;17.52;7.15;;;3.60;99.90;;;;;;5012050;28;20026;-86
2021/12/16 05:06:42;;;;;;;15.80;7.10;;;3.60;99.90;;;;;;5011500;28;20383;-86
2021/12/16 05:09:12;;;;;;;15.83;6.87;;;3.60;99.90;;;;;;5011327;28;20154;-86
2021/12/16 05:11:45;;;;;;;15.87;6.77;;;3.60;99.90;;;;;;5012186;28;20115;-86
2021/12/16 05:14:11;;;;;;;17.90;7.33;;;3.50;99.90;;;;;;5012074;28;20034;-86
2021/12/16 05:16:36;;;;;;;16.57;6.80;;;3.60;99.90;;;;;;4994741;28;20034;-85
2021/12/16 05:19:03;;;;;;;16.03;6.93;;;3.50;99.90;;;;;;4994665;28;20438;-85
2021/12/16 05:21:45;;;;;;;18.50;7.70;;;3.50;99.90;;;;;;4995740;28;20152;-86
2021/12/16 05:24:25;;;;;;;17.17;6.80;;;3.50;99.90;;;;;;5003331;28;20105;-86
2021/12/16 05:26:54;;;;;;;16.20;6.63;;;3.50;99.90;;;;;;4994963;28;20367;-86
2021/12/16 05:29:20;;;;;;;15.10;6.13;;;3.50;99.90;;;;;;4994536;28;20052;-86
2021/12/16 05:31:48;;;;;;;15.00;5.93;;;3.50;99.90;;;;;;5007188;28;20034;-86
2021/12/16 05:34:14;;;;;;;15.40;6.20;;;3.50;99.90;;;;;;4997749;28;20030;-86
2021/12/16 05:36:40;;;;;;;15.63;6.17;;;3.50;99.90;;;;;;4992641;28;20018;-86
2021/12/16 05:39:07;;;;;;;13.53;5.67;;;3.60;99.90;;;;;;5014658;28;20018;-84
2021/12/16 05:41:33;;;;;;;16.67;6.83;;;3.60;99.90;;;;;;5015246;28;20034;-85
2021/12/16 05:43:59;;;;;;;15.43;5.83;;;3.50;99.90;;;;;;4998226;28;20607;-84
2021/12/16 05:46:26;;;;;;;14.63;6.27;;;3.50;99.90;;;;;;4994666;28;20429;-84
2021/12/16 05:48:54;;;;;;;14.90;6.20;;;3.50;99.90;;;;;;5013113;28;20034;-85
2021/12/16 05:51:33;;;;;;;16.43;6.70;;;3.50;99.90;;;;;;5012587;28;20137;-84
2021/12/16 05:54:01;;;;;;;18.83;7.33;;;3.50;99.90;;;;;;4990142;28;20074;-83
2021/12/16 05:56:27;;;;;;;14.70;6.13;;;3.50;99.90;;;;;;4997357;28;20018;-82
2021/12/16 05:58:53;;;;;;;15.53;6.17;;;3.50;99.90;;;;;;4996329;28;20040;-83
2021/12/16 06:01:26;;;;;;;16.70;6.03;;;3.50;99.90;;;;;;5013021;28;20081;-81
2021/12/16 06:03:53;;;;;;;15.03;6.17;;;3.50;99.90;;;;;;5013910;28;20022;-85
2021/12/16 06:06:19;;;;;;;16.27;6.57;;;3.50;99.90;;;;;;4994142;28;20057;-85
2021/12/16 06:08:46;;;;;;;16.47;7.30;;;3.60;99.90;;;;;;4993937;28;20026;-86
2021/12/16 06:11:20;;;;;;;20.30;6.67;;;3.70;99.90;;;;;;4995275;28;20026;-86
2021/12/16 06:28:03;;;;;;;13.77;6.10;;;3.80;99.90;;;;;;5012674;28;20068;-85
2021/12/16 06:30:30;;;;;;;19.10;6.77;;;3.80;99.90;;;;;;5010027;28;20041;-86
2021/12/16 06:32:57;;;;;;;18.07;6.40;;;3.90;99.90;;;;;;5015164;22;20399;-89
2021/12/16 06:35:24;;;;;;;15.80;6.50;;;3.90;99.90;;;;;;5000583;28;20105;-90
2021/12/16 06:37:50;;;;;;;14.40;5.43;;;3.90;99.90;;;;;;5003289;28;20030;-88
2021/12/16 06:40:17;;;;;;;15.13;6.57;;;3.90;99.90;;;;;;5015589;28;20445;-89
2021/12/16 06:42:43;;;;;;;16.07;6.40;;;3.90;99.90;;;;;;5008076;28;20035;-88
2021/12/16 06:45:20;;;;;;;15.57;6.03;;;4.00;99.90;;;;;;4991276;28;20188;-88
2021/12/16 06:47:52;;;;;;;18.57;7.23;;;4.00;99.90;;;;;;5019718;28;20079;-86
2021/12/16 06:53:03;;;;;;;16.10;5.73;;;4.00;99.90;;;;;;4980871;28;20038;-89
2021/12/16 06:58:32;;;;;;;15.67;5.90;;;4.10;99.90;;;;;;4997006;28;20113;-88
2021/12/16 07:01:10;;;;;;;18.50;6.77;;;4.10;99.90;;;;;;4992354;28;20080;-87
2021/12/16 07:03:48;;;;;;;17.17;6.03;;;4.10;99.90;;;;;;5002293;28;20022;-88
2021/12/16 07:06:20;;;;;;;18.53;6.50;;;4.10;99.90;;;;;;5012731;28;20030;-87
2021/12/16 07:08:48;;;;;;;18.30;6.50;;;4.00;99.90;;;;;;5009445;28;20054;-88
2021/12/16 07:11:14;;;;;;;14.80;6.07;;;4.00;99.90;;;;;;4989340;28;20090;-88
2021/12/16 07:13:42;;;;;;;15.90;6.57;;;4.00;99.90;;;;;;4974421;28;20077;-87
2021/12/16 07:16:12;;;;;;;13.93;5.50;;;4.00;99.90;;;;;;4992443;28;20379;-88
2021/12/16 07:18:38;;;;;;;15.73;6.00;;;4.00;99.90;;;;;;5000862;28;20113;-88
2021/12/16 07:21:06;;;;;;;15.13;5.87;;;4.00;99.90;;;;;;4989441;28;20150;-88
2021/12/16 07:23:32;;;;;;;18.67;7.30;;;4.00;99.90;;;;;;5007065;28;20041;-86
2021/12/16 07:25:58;;;;;;;15.80;5.97;;;4.00;99.90;;;;;;5018561;28;20019;-87
2021/12/16 07:28:25;;;;;;;17.03;6.50;;;4.00;99.90;;;;;;5004553;28;20074;-88
2021/12/16 07:30:51;;;;;;;14.20;5.73;;;4.10;99.90;;;;;;4989776;28;20043;-88
2021/12/16 07:33:17;;;;;;;13.03;6.13;;;4.10;99.90;;;;;;4973760;28;20207;-88
2021/12/16 07:35:44;;;;;;;15.03;6.20;;;4.00;99.90;;;;;;4992857;28;20481;-88
2021/12/16 07:38:10;;;;;;;15.27;6.33;;;4.10;99.90;;;;;;5008797;28;20031;-86
2021/12/16 07:40:37;;;;;;;16.77;6.40;;;4.10;99.90;;;;;;4998150;28;20057;-88
2021/12/16 07:46:11;;;;;;;14.60;5.43;;;4.10;99.90;;;;;;4995188;28;20029;-87
2021/12/16 07:48:46;;;;;;;15.77;6.77;;;4.10;99.90;;;;;;5003494;28;20022;-88
2021/12/16 07:51:14;;;;;;;14.23;5.53;;;4.20;99.90;;;;;;5026005;28;20045;-87
2021/12/16 07:53:48;;;;;;;18.27;7.23;;;4.20;99.90;;;;;;4993078;28;20022;-85
2021/12/16 07:56:22;;;;;;;16.10;6.03;;;4.20;99.90;;;;;;5002623;28;20031;-87
2021/12/16 07:58:57;;;;;;;17.20;7.07;;;4.20;99.90;;;;;;5007023;28;20026;-87
2021/12/16 08:01:26;;;;;;;15.87;6.37;;;4.20;99.90;;;;;;5016829;28;20026;-87
2021/12/16 08:03:52;;;;;;;14.30;5.70;;;4.20;99.90;;;;;;5022241;28;20069;-88
2021/12/16 08:06:29;;;;;;;16.10;6.40;;;4.20;99.90;;;;;;5025736;28;20061;-89
2021/12/16 08:09:03;;;;;;;18.40;7.07;;;4.30;99.90;;;;;;5011039;28;20031;-87
2021/12/16 08:11:48;;;;;;;17.43;7.27;;;4.30;99.90;;;;;;5008415;28;20112;-88
2021/12/16 08:14:23;;;;;;;17.73;6.33;;;4.30;99.90;;;;;;4999705;28;20105;-89
2021/12/16 08:16:49;;;;;;;14.50;6.20;;;4.20;99.90;;;;;;5009631;28;20054;-88
2021/12/16 08:19:15;;;;;;;15.03;6.33;;;4.30;99.90;;;;;;4997502;28;20030;-87
2021/12/16 08:21:41;;;;;;;17.00;5.57;;;4.20;99.90;;;;;;5013456;28;20128;-86
2021/12/16 08:24:13;;;;;;;16.63;6.40;;;4.30;99.90;;;;;;5028887;28;20056;-89
2021/12/16 08:26:40;;;;;;;15.93;6.70;;;4.30;99.90;;;;;;5024675;28;20041;-88
2021/12/16 08:29:14;;;;;;;14.10;6.23;;;4.30;99.90;;;;;;5009621;28;20022;-89
2021/12/16 08:31:40;;;;;;;14.73;5.07;;;4.30;99.90;;;;;;5005866;28;20048;-87
2021/12/16 08:34:06;;;;;;;15.20;6.07;;;4.30;99.90;;;;;;5017478;28;20121;-88
2021/12/16 08:36:37;;;;;;;15.97;6.83;;;4.30;99.90;;;;;;5006129;28;20021;-88
2021/12/16 08:39:15;;;;;;;15.90;6.43;;;4.40;99.90;;;;;;5016482;28;20026;-86
2021/12/16 08:41:53;;;;;;;17.97;6.60;;;4.40;99.90;;;;;;5013317;28;20121;-86
2021/12/16 08:44:19;;;;;;;15.53;5.93;;;4.30;99.90;;;;;;5001179;28;20085;-88
2021/12/16 08:46:49;;;;;;;17.40;6.20;;;4.40;99.90;;;;;;5000248;28;20035;-88
2021/12/16 08:49:15;;;;;;;16.63;5.90;;;4.40;99.90;;;;;;5020107;28;20026;-88
2021/12/16 08:51:49;;;;;;;17.13;7.07;;;4.50;99.90;;;;;;5005564;28;20026;-88
2021/12/16 08:54:19;;;;;;;15.23;6.23;;;4.50;99.90;;;;;;5011420;28;20036;-89
2021/12/16 08:56:46;;;;;;;14.17;5.83;;;4.50;99.90;;;;;;4992647;28;20037;-89
2021/12/16 08:59:37;;;;;;;16.50;6.67;;;4.60;99.90;;;;;;5018807;28;20544;-89
2021/12/16 09:02:24;;;;;;;13.70;5.83;;;4.60;99.90;;;;;;4999347;28;20030;-89
2021/12/16 09:04:51;;;;;;;15.13;6.23;;;4.50;99.90;;;;;;5017479;28;20030;-89
2021/12/16 09:07:17;;;;;;;14.70;6.70;;;4.60;99.90;;;;;;5002140;28;20030;-90
2021/12/16 09:09:55;;;;;;;17.33;7.20;;;4.70;99.90;;;;;;5008145;28;20057;-88
2021/12/16 09:13:05;;;;;;;18.00;6.93;;;4.70;99.90;;;;;;5006075;28;20118;-90
2021/12/16 09:18:41;;;;;;;16.40;6.55;;;4.80;99.90;;;;;;5009352;28;20048;-89
2021/12/16 09:21:21;;;;;;;15.17;6.27;;;4.70;99.90;;;;;;5032519;28;20026;-89
2021/12/16 09:24:07;;;;;;;16.77;6.00;;;4.70;99.90;;;;;;5021025;28;20137;-88
2021/12/16 09:26:36;;;;;;;16.17;5.53;;;4.80;99.90;;;;;;5010050;28;20041;-90
2021/12/16 09:29:03;;;;;;;12.77;5.83;;;4.80;99.90;;;;;;4993171;28;20397;-89
2021/12/16 09:31:35;;;;;;;13.03;5.60;;;4.80;99.90;;;;;;5010427;28;20037;-88
2021/12/16 09:34:05;;;;;;;;;;;4.90;99.90;;;;;;5009276;28;20038;-87
2021/12/16 09:36:35;;;;;;;14.17;5.23;;;5.00;99.90;;;;;;5011416;28;19976;-87
2021/12/16 09:39:06;;;;;;;13.53;5.80;;;5.00;99.90;;;;;;5000817;28;20030;-87
2021/12/16 09:41:32;;;;;;;13.90;6.37;;;5.00;99.90;;;;;;5006848;28;20035;-87
2021/12/16 09:43:59;;;;;;;11.93;5.63;;;5.00;99.90;;;;;;5005436;28;20029;-88
2021/12/16 09:46:30;;;;;;;15.17;5.77;;;5.00;99.90;;;;;;5019944;28;20027;-86
2021/12/16 09:49:01;;;;;;;14.97;6.33;;;5.10;99.90;;;;;;5016732;28;20097;-87
2021/12/16 09:51:33;;;;;;;13.90;5.95;;;5.10;99.90;;;;;;5022834;28;20049;-88
2021/12/16 09:54:10;;;;;;;16.43;6.47;;;5.10;99.90;;;;;;5009181;28;20041;-89
2021/12/16 09:56:39;;;;;;;17.73;6.47;;;5.20;99.90;;;;;;5019097;28;20034;-88
2021/12/16 09:59:07;;;;;;;15.00;5.63;;;5.20;99.90;;;;;;5011623;28;20034;-86
2021/12/16 10:01:35;;;;;;;13.50;5.57;;;5.20;99.90;;;;;;5020734;28;20080;-87
2021/12/16 10:04:06;;;;;;;15.50;6.10;;;5.30;99.90;;;;;;5014962;28;20028;-88
2021/12/16 10:06:35;;;;;;;17.10;6.10;;;5.30;99.90;;;;;;4994075;28;20029;-85
2021/12/16 10:09:08;;;;;;;14.70;5.57;;;5.20;99.90;;;;;;5002955;28;20125;-87
2021/12/16 10:11:40;;;;;;;15.50;6.47;;;5.20;99.90;;;;;;4999251;28;20076;-87
2021/12/16 10:19:44;;;;;;;;;;;;;;;;;;;;;
2021/12/16 10:22:53;;;;;;;12.20;5.30;;;5.30;99.90;;;;;;5003158;28;20610;-89
2021/12/16 10:26:00;;;;;;;16.20;7.23;;;5.30;99.90;;;;;;5006729;28;20022;-88
2021/12/16 10:28:29;;;;;;;12.83;5.33;;;5.30;99.90;;;;;;4990777;28;20029;-88
2021/12/16 10:31:11;;;;;;;16.37;5.97;;;5.30;99.90;;;;;;5010676;28;20069;-89
2021/12/16 10:33:52;;;;;;;15.52;6.72;;;5.40;99.90;;;;;;4995691;28;20041;-89
2021/12/16 10:36:37;;;;;;;14.27;5.73;;;5.30;99.90;;;;;;5019475;28;20041;-90
2021/12/16 10:39:16;;;;;;;16.90;5.93;;;5.30;99.90;;;;;;5012054;28;20025;-89
2021/12/16 10:41:48;;;;;;;16.00;6.93;;;5.30;99.90;;;;;;5019989;28;20069;-89
2021/12/16 10:44:47;;;;;;;13.57;5.93;;;5.30;99.90;;;;;;5027129;28;20029;-91
2021/12/16 10:47:28;;;;;;;15.13;5.67;;;5.30;99.90;;;;;;4998244;28;20018;-90
2021/12/16 10:49:54;;;;;;;13.03;5.83;;;5.40;99.90;;;;;;5016607;28;20026;-91
2021/12/16 10:52:35;;;;;;;13.70;5.50;;;5.30;99.90;;;;;;5019707;28;20109;-91
2021/12/16 10:58:57;;;;;;;16.00;5.27;;;5.40;99.90;;;;;;5004621;28;20042;-91
2021/12/16 11:02:28;;;;;;;;;;;;;;;;;;;;;
2021/12/16 11:04:59;;;;;;;11.83;5.13;;;5.50;99.90;;;;;;4993319;28;20037;-88
2021/12/16 11:08:07;;;;;;;12.57;5.23;;;5.50;99.90;;;;;;4992405;28;20019;-88
2021/12/16 11:10:46;;;;;;;12.93;5.33;;;5.40;99.90;;;;;;4992998;28;20054;-89
2021/12/16 11:13:48;;;;;;;14.40;6.37;;;5.50;99.90;;;;;;5047949;23;20066;-90
2021/12/16 11:16:32;;;;;;;11.10;5.22;;;5.50;99.90;;;;;;5074477;28;20099;-91
2021/12/16 11:19:44;;;;;;;13.57;5.73;;;5.50;99.90;;;;;;5080032;28;20041;-90
2021/12/16 11:22:23;;;;;;;13.17;5.97;;;5.40;99.90;;;;;;5072227;28;20337;-91
2021/12/16 11:25:03;;;;;;;11.87;5.27;;;5.50;99.90;;;;;;5062764;28;20358;-89
2021/12/16 11:27:36;;;;;;;13.40;5.47;;;5.40;99.90;;;;;;5064096;28;20406;-90
2021/12/16 11:30:25;;;;;;;14.33;5.50;;;5.50;99.90;;;;;;5069026;28;20021;-90
2021/12/16 11:33:22;;;;;;;14.83;5.33;;;5.50;99.90;;;;;;5071932;28;20024;-90
2021/12/16 11:36:10;;;;;;;12.63;5.67;;;5.50;99.90;;;;;;5068321;28;20044;-90
2021/12/16 11:38:48;;;;;;;13.83;5.77;;;5.60;99.90;;;;;;5066071;28;20028;-87
2021/12/16 11:41:56;;;;;;;15.90;5.30;;;5.60;99.90;;;;;;5059522;28;20044;-89
2021/12/16 11:44:35;;;;;;;14.77;5.57;;;5.60;99.90;;;;;;5031106;28;20028;-90
2021/12/16 11:47:08;;;;;;;12.27;5.37;;;5.60;99.90;;;;;;5051970;28;20028;-89
2021/12/16 11:49:39;;;;;;;14.03;6.47;;;5.50;99.90;;;;;;5060834;28;20031;-90
2021/12/16 11:52:21;;;;;;;12.63;5.47;;;5.60;99.90;;;;;;5072930;28;20035;-89
2021/12/16 11:54:52;;;;;;;14.23;5.80;;;5.50;99.90;;;;;;5070916;28;20037;-90
2021/12/16 11:57:38;;;;;;;12.03;5.20;;;5.50;99.90;;;;;;5067880;28;20041;-90
2021/12/16 12:00:22;;;;;;;12.93;5.13;;;5.60;99.90;;;;;;5066882;28;20039;-90
2021/12/16 12:03:14;;;;;;;13.77;5.43;;;5.70;99.90;;;;;;5069316;28;20078;-89
2021/12/16 12:05:57;;;;;;;13.20;5.10;;;5.70;99.90;;;;;;5062103;28;20116;-89
2021/12/16 12:08:31;;;;;;;13.73;6.17;;;5.70;99.90;;;;;;5060802;28;20107;-90
2021/12/16 12:11:24;;;;;;;12.67;5.47;;;5.70;99.90;;;;;;5066492;28;20048;-90
2021/12/16 12:14:21;;;;;;;13.27;5.60;;;5.80;99.90;;;;;;5051720;28;20045;-90
2021/12/16 12:17:34;;;;;;;10.23;4.80;;;5.80;99.90;;;;;;5070647;28;20037;-90
2021/12/16 12:20:42;;;;;;;12.43;5.27;;;5.90;99.90;;;;;;5068987;28;20068;-89
2021/12/16 12:23:23;;;;;;;12.53;5.87;;;5.90;99.90;;;;;;5071259;28;20479;-90
2021/12/16 12:26:47;;;;;;;13.60;5.80;;;5.90;99.90;;;;;;5053084;28;20100;-90
2021/12/16 12:30:30;;;;;;;10.03;4.83;;;5.90;99.90;;;;;;5058615;28;20029;-91
2021/12/16 12:32:46;;;;;;;12.40;5.43;;;5.90;99.90;;;;;;5057356;23;20429;-84
2021/12/16 12:35:20;;;;;;;10.67;5.30;;;6.00;99.90;;;;;;5031306;28;20021;-84
2021/12/16 12:37:53;;;;;;;12.97;5.43;;;6.00;99.90;;;;;;5045193;28;20025;-84
2021/12/16 12:40:23;;;;;;;14.70;5.37;;;6.00;99.90;;;;;;5022827;28;20079;-85
2021/12/16 12:42:51;;;;;;;11.80;5.57;;;6.00;99.90;;;;;;5031308;28;20135;-85
2021/12/16 12:45:20;;;;;;;12.17;5.07;;;6.00;99.90;;;;;;5030209;28;20503;-84
2021/12/16 12:47:54;;;;;;;11.90;4.87;;;6.10;99.90;;;;;;5030507;28;20028;-85
2021/12/16 12:50:24;;;;;;;11.00;5.23;;;6.10;99.90;;;;;;5028357;28;20438;-85
2021/12/16 12:52:56;;;;;;;12.03;5.23;;;6.10;99.90;;;;;;5031110;28;20121;-85
2021/12/16 12:55:32;;;;;;;12.75;6.20;;;6.20;99.90;;;;;;5029361;28;20096;-85
2021/12/16 12:58:14;;;;;;;12.67;5.30;;;6.20;99.90;;;;;;5031023;28;20075;-84
2021/12/16 13:00:53;;;;;;;10.63;4.80;;;6.20;99.90;;;;;;5030796;28;20355;-84
2021/12/16 13:03:33;;;;;;;14.27;5.33;;;6.30;99.90;;;;;;5028727;28;20036;-84
2021/12/16 13:06:09;;;;;;;11.90;5.17;;;6.30;99.90;;;;;;5031538;28;20068;-84
2021/12/16 13:08:42;;;;;;;11.83;5.37;;;6.30;99.90;;;;;;5025313;28;20022;-84
2021/12/16 13:11:14;;;;;;;10.00;4.87;;;6.30;99.90;;;;;;5031084;28;20025;-85
2021/12/16 13:14:39;;;;;;;;;;;;;;;;;;;;;
2021/12/16 13:42:22;;;;;;;13.57;5.73;;;6.30;99.90;;;;;;4967686;28;20057;-90
2021/12/16 14:47:14;;;;;;;15.00;5.77;;;6.00;99.90;;;;;;5057214;28;20013;-87
2021/12/16 14:49:43;;;;;;;10.33;4.47;;;6.00;99.90;;;;;;5050994;28;20025;-87
2021/12/16 14:52:19;;;;;;;10.30;5.20;;;6.00;99.90;;;;;;5049305;28;20632;-86
2021/12/16 14:54:49;;;;;;;10.63;4.47;;;5.90;99.90;;;;;;5037546;28;20117;-86
2021/12/16 14:57:20;;;;;;;13.00;5.50;;;5.90;99.90;;;;;;5034051;28;20026;-86
2021/12/16 14:59:46;;;;;;;12.10;5.33;;;5.80;99.90;;;;;;5037144;28;20672;-87
2021/12/16 15:02:19;;;;;;;10.47;4.53;;;5.80;99.90;;;;;;5055182;28;20279;-86
2021/12/16 15:14:53;;;;;;;10.60;5.20;;;5.80;99.90;;;;;;5007144;28;20455;-85
2021/12/16 15:45:04;;;;;;;15.77;5.07;;;5.10;99.90;;;;;;5055469;28;20035;-86
2021/12/16 15:47:30;;;;;;;12.75;5.93;;;5.00;99.90;;;;;;5058559;28;20388;-86
2021/12/16 15:49:57;;;;;;;11.00;5.20;;;4.90;99.90;;;;;;5036115;28;20052;-86
2021/12/16 15:52:23;;;;;;;11.97;5.20;;;4.90;99.90;;;;;;5038409;28;20027;-87
2021/12/16 15:54:51;;;;;;;11.87;5.33;;;4.90;99.90;;;;;;5054758;28;20528;-87
2021/12/16 15:57:23;;;;;;;12.70;5.03;;;4.80;99.90;;;;;;5032545;28;20036;-85
2021/12/16 15:59:50;;;;;;;11.87;5.27;;;4.80;99.90;;;;;;5032492;28;20036;-86
2021/12/16 16:02:17;;;;;;;11.77;4.90;;;4.70;99.90;;;;;;5034719;28;20033;-86
2021/12/16 16:04:43;;;;;;;10.07;5.00;;;4.60;99.90;;;;;;5055888;28;20021;-86
2021/12/16 16:07:14;;;;;;;12.63;5.73;;;4.60;99.90;;;;;;5034323;28;20780;-86
2021/12/16 16:09:47;;;;;;;11.30;4.87;;;4.60;99.90;;;;;;5044372;28;20396;-85
2021/12/16 16:12:16;;;;;;;;;;;4.50;99.90;;;;;;5034280;28;20029;-86
2021/12/16 16:14:49;;;;;;;8.67;3.97;;;4.50;99.90;;;;;;5037179;28;19917;-86
2021/12/16 16:17:22;;;;;;;9.17;4.17;;;4.50;99.90;;;;;;5052234;28;20036;-86
2021/12/16 16:19:51;;;;;;;9.70;4.37;;;4.40;99.90;;;;;;5056630;28;20072;-86
2021/12/16 16:22:18;;;;;;;8.70;4.17;;;4.40;99.90;;;;;;5048554;28;20033;-86
2021/12/16 16:24:51;;;;;;;11.77;4.73;;;4.30;99.90;;;;;;5031279;28;20124;-86
2021/12/16 16:27:23;;;;;;;9.33;4.53;;;4.30;99.90;;;;;;5031078;28;20080;-86
2021/12/16 16:29:52;;;;;;;9.25;4.90;;;4.30;99.90;;;;;;5053929;28;20493;-86
2021/12/16 16:32:19;;;;;;;8.77;4.40;;;4.20;99.90;;;;;;5057586;28;20068;-86
2021/12/16 16:34:48;;;;;;;12.67;5.10;;;4.20;99.90;;;;;;5052252;28;20024;-85
2021/12/16 16:37:28;;;;;;;8.67;4.57;;;4.10;99.90;;;;;;5051452;28;20469;-86
2021/12/16 16:40:00;;;;;;;8.47;4.10;;;4.10;99.90;;;;;;5064837;28;20076;-85
2021/12/16 16:42:35;;;;;;;9.88;4.85;;;4.10;99.90;;;;;;5052751;28;20037;-86
2021/12/16 16:45:03;;;;;;;9.13;4.73;;;4.10;99.90;;;;;;5032376;28;20047;-86
2021/12/16 16:47:46;;;;;;;11.23;4.33;;;4.00;99.90;;;;;;5048878;28;20448;-87
2021/12/16 16:50:17;;;;;;;9.13;4.07;;;4.00;99.90;;;;;;5029727;28;20033;-87
2021/12/16 16:52:46;;;;;;;11.57;4.17;;;4.00;99.90;;;;;;5027079;28;20040;-87
2021/12/16 16:55:17;;;;;;;9.97;4.80;;;4.10;99.90;;;;;;5058051;28;20059;-87
2021/12/16 16:57:46;;;;;;;11.50;5.27;;;4.10;99.90;;;;;;5037101;28;20435;-87
2021/12/16 17:00:23;;;;;;;10.90;4.63;;;4.10;99.90;;;;;;5052879;28;20033;-86
2021/12/16 17:03:01;;;;;;;9.47;4.80;;;4.10;99.90;;;;;;5057965;28;20267;-86
2021/12/16 17:05:37;;;;;;;10.27;4.50;;;4.10;99.90;;;;;;5032832;28;20040;-87
2021/12/16 17:08:16;;;;;;;9.83;4.50;;;4.20;99.90;;;;;;5033013;28;20032;-86
2021/12/16 17:11:12;;;;;;;14.00;4.67;;;4.10;99.90;;;;;;5032390;28;20025;-86
2021/12/16 17:13:53;;;;;;;11.90;4.63;;;4.10;99.90;;;;;;5030590;28;20485;-86
2021/12/16 17:18:55;;;;;;;11.10;5.17;;;4.10;99.90;;;;;;5050811;28;20115;-86
2021/12/16 17:21:24;;;;;;;8.57;4.20;;;4.00;99.90;;;;;;5031835;28;20062;-86
2021/12/16 17:24:13;;;;;;;11.53;5.00;;;4.00;99.90;;;;;;5032372;28;20029;-86
2021/12/16 17:26:42;;;;;;;10.43;5.60;;;4.00;99.90;;;;;;5032759;28;20064;-86
2021/12/16 17:29:17;;;;;;;10.57;5.10;;;4.00;99.90;;;;;;5050196;28;20051;-86
2021/12/16 17:31:48;;;;;;;10.43;5.53;;;4.00;99.90;;;;;;5050981;28;20029;-86
2021/12/16 17:34:26;;;;;;;10.60;4.83;;;4.00;99.90;;;;;;5050662;28;20047;-86
2021/12/16 17:37:01;;;;;;;9.97;4.80;;;3.90;99.90;;;;;;5050883;28;20508;-86
2021/12/16 17:39:32;;;;;;;11.50;5.37;;;3.90;99.90;;;;;;5051243;28;20083;-86
2021/12/16 17:42:15;;;;;;;7.80;4.63;;;3.90;99.90;;;;;;5032630;28;20028;-86
2021/12/16 17:44:43;;;;;;;;;;;3.90;99.90;;;;;;5033104;28;20485;-87
2021/12/16 17:47:18;;;;;;;10.67;4.60;;;3.90;99.90;;;;;;5032885;28;19916;-88
2021/12/16 17:49:44;;;;;;;10.50;4.40;;;3.80;99.90;;;;;;5033149;28;20125;-87
2021/12/16 17:52:40;;;;;;;12.07;5.20;;;3.80;99.90;;;;;;5050558;28;20060;-88
2021/12/16 17:55:15;;;;;;;13.63;4.80;;;3.80;99.90;;;;;;5035623;28;20116;-87
2021/12/16 17:57:49;;;;;;;12.60;5.07;;;3.70;99.90;;;;;;5037835;28;20039;-87
2021/12/16 18:00:33;;;;;;;8.60;4.57;;;3.70;99.90;;;;;;5048589;28;20384;-87
2021/12/16 18:03:00;;;;;;;11.03;4.63;;;3.70;99.90;;;;;;5032129;28;20033;-87
2021/12/16 18:05:36;;;;;;;11.33;5.33;;;3.60;99.90;;;;;;5027978;28;20028;-87
2021/12/16 18:08:02;;;;;;;14.47;4.63;;;3.60;99.90;;;;;;5032608;28;20116;-87
2021/12/16 18:10:28;;;;;;;10.73;4.60;;;3.60;99.90;;;;;;5049496;28;20107;-87
2021/12/16 18:12:54;;;;;;;9.57;4.83;;;3.60;99.90;;;;;;5050267;28;20430;-88